Auction Buyer/Seller Tools

Zero Bids search

Find items with zero bids on eBay
This tool allows you to find more on eBay by finding items with zero bids only.
You might be the only bidder at the lowest price!
You can type a keyword in the field below. If you are getting too many unwanted results, then you can type unwanted keywords in "Exclude" field, this way those will be excluded from your results.

Search Keywords should be used as one single keyword or a short phrase (without quotes).
Exclude Keywords must be separated by Space or Comma.
Search Keywords:
Exclude Keywords:  
Digital Delivery items only
Free Shipping items only
Gallery items only
"Get It Fast" items only
Items with "Gift" option only
Items with quantity more than 1
Items with picture only
Current bid to
Condition:
Seller:
Country:
Item #TitleBidsCur.BidTime Left
302961896980 MX vs ATV Reflex New Xbox360 10 USD 19.98 00:00:38
232637962875 Need for Speed: Most Wanted Limited Edition (Microsoft Xbox 360, 2012) 0 USD 14.99 00:02:27
122822330469 Sticker Protectors Skin for Xbox 360 Wireless Controller Decal Flag 2 USD 6.08 00:03:48
273603587182 LEGO Indiana Jones: The Original Adventures (Microsoft Xbox 360, 2008) 2 USD 0.99 00:03:58
233043460731 Xbox 360 Elite works please read the description 3 USD 14.8 00:04:55
332887236760 TX X Clamp X-Clamp Removal Tool Replacement For Xbox 360 New 0 USD 10.61 00:05:38
352518018675 LOT OF 2 XBOX 360 FAT DVD DISC DRIVES - UN TESTED 0 USD 17.95 00:05:47
143016785408 Battlefield 4 Microsoft Xbox 360 Steelbook Edition 0 USD 11.99 00:06:41
143016785409 Sniper Elite V2 (Microsoft Xbox 360, 2012) VERY GOOD 0 USD 9.99 00:06:41
173541862935 100ft Long Ethernet Network Cable for Playstation PS 2 3 XBox 360 Internet Cord 0 USD 10.1 00:07:21
282448033642 2x Silver Battery Springs Replacement Part for Microsoft Xbox 360 USA 14 USD 1.99 00:07:31
253637459331 Injustice Gods Among Us XBOX 360 PS3 0 USD 10.99 00:07:42
202294482070 Generic 3 Prong AC Power Cable Cord for Xbox 360 PS3 Playstation 3 Adapter Lead 0 USD 16.87 00:08:53
202294482197 Microsoft OEM Component HD AV Cable For Xbox 360 Very Good 0Z 0 USD 14.87 00:08:56
202294482401 White 3.5mm Jack Mic Headset Earphone Converter Adapter For Xbox 360 Headphone 1 USD 14.87 00:09:00
182783888963 2X 4800mAh Battery Pack + Charger Dock for Microsoft XBOX360 Wireless Controller 414 USD 9.95 00:09:30
181177230672 8 PCS 8 Premium Self-Stick Copper Heatsinks Cooling For XBOX 360 VGA RAM 37 USD 7.95 00:10:27
223234750133 Ninja Blade - Replacement Xbox 360 Cover and Case. NO GAME!! 0 USD 1.73 00:10:52
122822346130 Decal Leather Sticker Skin Cover for Xbox 360 Wireless Controller Blue Explosion 0 USD 11.08 00:14:45
172153648918 Madden NFL 13 Xbox 360 Video Game 0 USD 10.0 00:17:06
253985964500 Call of Duty: Black Ops LTO Edition - Xbox 360 GAME, MANUAL, CODE 0 USD 14.99 00:17:28
253985964509 Call of Duty: Ghosts (Microsoft Xbox 360, 2013) GAME CASE MANUAL GOLD TRIAL 0 USD 14.99 00:17:28
152754960311 1.5m USB Charger Cable Replacement Battery Cover for Xbox 360 Controller 0 USD 6.95 00:17:53
183334966079 Brand *NEW* Star Wars Disney Infinity 3.0 Edition For Microsoft Xbox 360 0 USD 1.99 00:18:38
352069563401 For Xbox 360 Controller Full Buttons Replacement Parts ABXY Bumpers - Chrome Red 48 USD 6.99 00:18:42
122822348514 Decal Sticker Cover for Xbox 360 Silm Games Wireless Controller Xbox 360 Skin 5 USD 6.08 00:18:59
260842359519 L R Optical Output Audio Adapter for Microsoft Xbox 360 110 USD 5.7 00:20:21
202063028694 XBOX 360 SLIM STICKER DEADPOOL MERCENARY WADE WINSTON WILSON SKIN & 2 PAD SKINS 3 USD 13.28 00:21:13
202063028702 XBOX 360 E HARLEY QUINN ARKHAM ASYLUM BATMAN SKIN SUPERSLIM & 2 PAD SKIN 3 USD 11.98 00:21:13
192314535818 Xbox 360 SLIM Console Sticker Skin Mortal Kombat Style & 2 X Controller Skins 2 USD 13.28 00:21:16
222654307394 XBOX 360 STICKER MARVEL DC ACTION HERO SUPERHEROES SKIN & 2 CONTROL PAD SKINS 0 USD 11.99 00:21:16
361708287116 Component YUV Y,Pr,Pb Cable Adapter for Game Console Microsoft XBox 360 / TV AV 0 USD 17.04 00:21:16
202063028757 XBOX 360 E TEENAGE MUTANT NINJA TURTLES TMNT SKIN SUPERSLIM & 2 PAD SKIN 0 USD 11.98 00:21:19
222654307430 XBOX 360 SLIM STICKER EAT SLEEP MINE REPEAT MINECRAFT STYLE SKIN & 2 X PAD SKIN 2 USD 13.33 00:21:20
222654307434 XBOX 360 SLIM CONSOLE STICKER BATMAN ARKHAM ORIGINS SKIN & 2 CONTROLLER SKINS 0 USD 13.28 00:21:21
202063028774 XBOX 360 TINKERBELL AND FRIENDS FAIRIES 001 STICKER SKIN COVER & 2 PAD SKINS 0 USD 11.98 00:21:23
123260896813 5 Port HDMI Selector Switch Splitter IR Remote 1080P For Sky-HD STV PS3 Xbox 360 0 USD 9.44 00:25:55
122822359077 Protect Leather Sticker Skin for Xbox 360 Wireless Controller Digital Green 1 USD 6.08 00:26:58
280729998411 Controller Conductive Rubber Pad for Xbox 360 Parts 197 USD 3.01 00:29:08
121973285578 NBA 2K13 (Xbox 360, 2012) 0 USD 15.0 00:30:16
253764811218 Microsoft Xbox 360 Live Vision Camera. 0 USD 7.0 00:32:30
122822367384 Gamepad Protector Skin Sticker for Xbox 360 Controller Decal Battle Torn Stripe 0 USD 11.08 00:32:55
163057866560 MagiDeal 5x Analog Stick Joypad Cap + Power Switch Flex Cable for Xbox 360 S 0 USD 4.95 00:35:21
312324596443 Call of Duty: Ghosts (Microsoft Xbox 360, 2013) 0 USD 4.0 00:36:09
273603624593 Hitman: Absolution (Microsoft Xbox 360, 2012) tested 1 USD 1.0 00:37:31
123320730283 Fifa 13 Xbox 360 Game 0 USD 2.58 00:38:02
122822386072 Decal Protector Sticker for Xbox 360 Controller Leather Skin Battle Torn Strip 3 USD 6.08 00:38:48
253879152233 Battery Pack Cover Shell Shield Case Kit for Xbox 360 Wireless Controller NEW LS 2 USD 5.76 00:39:48
132749863451 Fifa 07 Xbox 360 Game Complete With Manual 0 USD 2.86 00:40:01
264077324962 GENUINE MICROSOFT XBOX 360 20GB HARD DRIVE X804675-003 GRAY.-- TESTED / WORKS -- 0 USD 9.99 00:40:12
264045343348 MOBILE SUIT GUNDAM OPERATION TROY XBOX 360 0 USD 17.93 00:42:07
273603628870 Halo 3 (Microsoft Xbox 360, 2007) tested has 48 hr xbox live with it and poster 1 USD 0.99 00:42:47
122822394470 Vinyl Skin Sticker for Xbox 360 Controller Accessory Decal Cover Weeds Black 4 USD 6.08 00:44:46
111763027112 Dance Central (Microsoft Xbox 360, 2010) 0 USD 10.0 00:47:00
352123953363 2008 Last Remnant Poster ~ XBOX 360 ~ Square Enix 0 USD 6.26 00:47:49
122822396895 Sticker for Xbox 360 Controller Cover X360 Remote Skin Sticker PC Game Pad Blue 3 USD 6.08 00:48:05
264082017190 Xbox 360 20gb Funciona Bien Pero Primero Nesesita Unos Golpes Arriba Para Que... 0 USD 10.0 00:49:09
262034119239 Kinect Adventures! (Xbox 360, 2010) 0 USD 5.0 00:49:50
264045360294 Dishonored (Microsoft Xbox 360, 2012) Complete CIB 0 USD 8.95 00:49:52
264045360302 Dead Space (Microsoft Xbox 360, 2008) Complete CIB 0 USD 10.95 00:49:52
264045360322 Call of Duty: Black Ops II (Microsoft Xbox 360, 2012) Complete CIB COD II 0 USD 16.95 00:49:53
122822402886 Vinly Cover Skin Sticker for Xbox 360 Controller Decal Gampad Protect Flag 0 USD 6.08 00:52:10
162769029525 Mini 2.4GHz Wireless Keyboard Mouse Backlight for PC XBox 360 PS4 MagiDeal 0 USD 15.83 00:56:04
264045371695 MICROSOFT XBOX 360 GAME | FABLE 3 III | PAL COMPLETE 0 USD 10.75 00:58:56
123320758908 Lost Planet 3 Xbox 360 Game Complete With Manual 0 USD 11.64 01:00:18
302990913291 Xbox 360 S 320GB Hard Drive 0 USD 13.99 01:01:43
263826642412 Major League Baseball 2K7 - Xbox 360 by Artist Not Provided 4 USD 4.02 01:04:14
122822424333 Decal Cover Vinly Sticker for Xbox 360 Controller Skin Reaper Black Accessory 3 USD 6.08 01:05:30
111763036033 Hail to the Chimp (Microsoft Xbox 360, 2008) 0 USD 7.0 01:05:33
132631031865 Alan Wake (Microsoft Xbox 360, 2010) Sealed 4 USD 12.5 01:11:34
112652157330 Cover Skin Protector Sticker Decal for Xbox 360 Wireless Controller Digital Pink 1 USD 4.37 01:12:15
163424288811 NBA 2K15 (Microsoft Xbox 360, 2014) 0 USD 4.0 01:12:43
272291707311 Premium 15FT Nylon Net HDMI Category2(Full 1080P)(Compatible with Xbox 360 PS3) 1 USD 7.27 01:12:53
391496309689 Premium 6FT HDMI w/Nylon Net Category2(Full 1080P)(Compatible with Xbox 360 PS3) 3 USD 5.68 01:12:54
183540524766 Turtle Beach Ear Force XL1 BlackGreen Headsets for Xbox 360 0 USD 17.0 01:20:34
272291712904 Premium 2X10FT Nylon Net HDMI Category2(Full 1080P)(Compatible for Xbox 360 PS3) 2 USD 8.41 01:21:18
321611359506 USA XBox 360 S 360 Slim 4GB 250GB Power Eject Circuit Ribbon Cable LOT OF 5 9 USD 16.95 01:22:59
264045397389 XBOX 360 FORZA 2 THE COMPLETE COLLECTION COMPLETE 0 USD 10.99 01:25:03
253879252023 New Power Switch Button Ribbon Flex Cable Replacement Parts For Xbox 360 Slim LS 0 USD 9.86 01:25:15
352540663420 Madden NFL 11, 12 & 13 Xbox360 0 USD 15.0 01:25:38
163321827135 Square Rubber Mix Cassette Tape Machine Belt For DVD Player Drive Xbox360 Repair 1 USD 8.34 01:27:00
192662004731 TNA Impact Xbox 360 Original Case Cover Art Bonuse Content Disc & Manual NO GAME 0 USD 9.93 01:27:49
253879256448 Camouflage Silicone Cover Case Skin for Xbox 360 Wireless Controller LS 0 USD 6.12 01:30:04
391825366393 UNIVERSE AT WAR XBOX 360 GAME FACE COVER HARD TO FIND SEGA PROMO new, no package 0 USD 7.0 01:30:57
352540668098 Warhammer Space Marine Xbox 360 0 USD 5.0 01:33:12
223284101270 Xbox 360 Kinect Adventures Video Game & Sensor Calibration Card Brand New in Box 0 USD 12.0 01:34:12
223284101271 Darksiders II Limited Edition Xbox 360 Factory Sealed!! Brand New in Box 0 USD 14.0 01:34:12
323599256562 Grand Theft Auto V for Xbox 360 FREE FAST SHIPPING COMPLETE W/Map #5 0 USD 14.0 01:34:12
123320792092 Tom Clancy's Splinter Cell Conviction Xbox 360 Game Complete With Manual #1 0 USD 3.9 01:34:33
143016843759 DJ Hero: Start the Party Scratch & Mix Hits (Microsoft Xbox 360, 2009) Complete 0 USD 5.25 01:34:40
132670999681 XBox 360-Assassins Creed Revelationclassx360 (UK IMPORT) GAME NEW 0 USD 15.49 01:35:41
283264609595 Microsoft Xbox 360 Console POWER CORD TESTED, WORKS PARTS 0 USD 15.99 01:35:50
112652186186 Generic Silicone Skin Case Cover For Xbox 360 Xbox360 Controller N7V3 9 USD 1.67 01:36:04
352540670711 Smack Down vs Raw 2011 Xbox 360 0 USD 5.0 01:36:09
153107256837 Scene It Box Office Smash (Microsoft Xbox 360, 2008) Game Only 0 USD 5.59 01:39:18
123320798100 Tom Clancy's Splinter Cell Conviction Xbox 360 Game Complete With Manual #2 0 USD 3.96 01:40:33
264045424905 Microsoft Xbox 360 Composite AV Cable for Xbox 360 Console X810973-001 0 USD 6.79 01:47:01
202441088561 FREE SHIPPING Assassin's Creed: Revelations (Microsoft Xbox 360, 2011) 0 USD 6.0 01:48:42
371931049895 New 8800C T8 Torx Precision Screwdriver Repair Tool For XBOX 360 Controller PS3 2 USD 1.94 01:49:33
132749911139 NBA 2K11 Xbox 360 Game Complete With Manual 0 USD 3.64 01:50:59
Tools For Buyer
Misspelled and Typo Search
Zero Bids Search
Images Search


Find great deals on xbox_360 at Shopzilla.com!
ads from Shopzilla,Inc